Time;durP1;ratioP1;P1;durP2;ratioP2;P2;SDS_P1;SDS_P2;PMS_P1;PMS_P2;Temp;Humidity;BMP_temperature;BMP_pressure;BME280_temperature;BME280_humidity;BME280_pressure;Samples;Min_cycle;Max_cycle;Signal;HPM_P1;HPM_P2
2022/01/13 00:00:21;;;;;;;38.78;20.42;;;6.10;99.90;;;;;;5099774;28;20271;-69
2022/01/13 00:02:49;;;;;;;39.30;17.80;;;6.10;99.90;;;;;;5099404;28;20212;-70
2022/01/13 00:05:18;;;;;;;39.40;18.70;;;6.10;99.90;;;;;;5099875;28;20204;-69
2022/01/13 00:07:48;;;;;;;45.72;19.08;;;6.10;99.90;;;;;;5100357;28;20220;-70
2022/01/13 00:10:15;;;;;;;40.72;18.98;;;6.20;99.90;;;;;;5100037;28;20253;-70
2022/01/13 00:12:44;;;;;;;35.03;16.33;;;6.10;99.90;;;;;;5098910;28;20214;-68
2022/01/13 00:15:25;;;;;;;41.80;16.40;;;6.10;99.90;;;;;;5098960;28;20252;-67
2022/01/13 00:18:00;;;;;;;34.92;16.20;;;6.10;99.90;;;;;;5099446;28;20223;-68
2022/01/13 00:20:36;;;;;;;32.08;15.48;;;6.10;99.90;;;;;;5099312;28;20231;-68
2022/01/13 00:25:57;;;;;;;40.30;17.48;;;6.10;99.90;;;;;;5098877;28;20299;-67
2022/01/13 00:28:25;;;;;;;37.47;15.98;;;6.10;99.90;;;;;;5101615;28;20804;-67
2022/01/13 00:30:55;;;;;;;41.58;17.35;;;6.10;99.90;;;;;;5101696;28;20208;-67
2022/01/13 00:33:25;;;;;;;35.65;16.83;;;6.10;99.90;;;;;;5100003;28;20196;-67
2022/01/13 00:35:56;;;;;;;43.35;19.83;;;6.10;99.90;;;;;;5099453;28;20231;-69
2022/01/13 00:38:25;;;;;;;38.47;18.27;;;6.10;99.90;;;;;;5099888;28;20235;-69
2022/01/13 00:40:54;;;;;;;42.08;17.48;;;6.20;99.90;;;;;;5099846;28;20754;-69
2022/01/13 00:43:22;;;;;;;43.72;19.15;;;6.20;99.90;;;;;;5099878;28;20829;-69
2022/01/13 00:45:50;;;;;;;44.58;18.35;;;6.20;99.90;;;;;;5102180;28;20891;-66
2022/01/13 00:48:18;;;;;;;45.10;20.35;;;6.20;99.90;;;;;;5103757;28;20257;-68
2022/01/13 00:50:47;;;;;;;38.30;17.30;;;6.20;99.90;;;;;;5099805;28;20246;-67
2022/01/13 00:53:16;;;;;;;36.78;18.05;;;6.30;99.90;;;;;;5106039;28;20295;-69
2022/01/13 00:55:48;;;;;;;42.47;18.38;;;6.30;99.90;;;;;;5099086;28;20212;-67
2022/01/13 00:58:18;;;;;;;45.70;20.00;;;6.30;99.90;;;;;;5098886;28;20211;-67
2022/01/13 01:00:46;;;;;;;43.33;18.80;;;6.40;99.90;;;;;;5098790;28;20195;-66
2022/01/13 01:03:14;;;;;;;38.40;19.15;;;6.40;99.90;;;;;;5098237;28;20261;-66
2022/01/13 01:05:43;;;;;;;41.25;19.92;;;6.40;99.90;;;;;;5098869;28;20208;-68
2022/01/13 01:08:12;;;;;;;41.63;18.58;;;6.40;99.90;;;;;;5098809;28;20439;-68
2022/01/13 01:10:48;;;;;;;43.25;18.05;;;6.40;99.90;;;;;;5102823;28;20206;-68
2022/01/13 01:13:20;;;;;;;47.90;19.25;;;6.40;99.90;;;;;;5099475;28;20294;-69
2022/01/13 01:15:53;;;;;;;43.58;17.95;;;6.40;99.90;;;;;;5099279;28;20246;-68
2022/01/13 01:18:30;;;;;;;45.85;18.00;;;6.30;99.90;;;;;;5098772;28;20231;-69
2022/01/13 01:21:20;;;;;;;47.10;19.15;;;6.30;99.90;;;;;;5099712;28;20199;-67
2022/01/13 01:24:12;;;;;;;40.45;17.70;;;6.30;99.90;;;;;;5099686;28;20219;-67
2022/01/13 01:26:45;;;;;;;39.75;17.90;;;6.30;99.90;;;;;;5099738;28;20587;-67
2022/01/13 01:29:20;;;;;;;47.03;17.70;;;6.40;99.90;;;;;;5098711;28;20557;-67
2022/01/13 01:31:51;;;;;;;54.03;20.48;;;6.40;99.90;;;;;;5098507;28;20260;-67
2022/01/13 01:34:34;;;;;;;45.40;18.30;;;6.40;99.90;;;;;;5108565;28;20196;-67
2022/01/13 01:37:06;;;;;;;43.95;18.42;;;6.40;99.90;;;;;;5119699;28;20239;-66
2022/01/13 01:39:34;;;;;;;41.17;18.30;;;6.40;99.90;;;;;;5103023;28;20286;-68
2022/01/13 01:42:03;;;;;;;44.63;18.02;;;6.40;99.90;;;;;;5101940;28;20328;-67
2022/01/13 01:44:35;;;;;;;43.72;20.20;;;6.40;99.90;;;;;;5101944;28;20318;-67
2022/01/13 01:47:05;;;;;;;45.28;19.10;;;6.40;99.90;;;;;;5102841;28;20308;-67
2022/01/13 01:49:38;;;;;;;39.83;18.70;;;6.40;99.90;;;;;;5102130;28;20292;-67
2022/01/13 01:52:08;;;;;;;50.40;20.15;;;6.40;99.90;;;;;;5101857;28;20298;-73
2022/01/13 01:54:36;;;;;;;41.63;20.65;;;6.40;99.90;;;;;;5102952;28;20421;-69
2022/01/13 01:57:07;;;;;;;53.55;19.00;;;6.40;99.90;;;;;;5105464;28;20283;-67
2022/01/13 01:59:38;;;;;;;40.28;18.48;;;6.40;99.90;;;;;;5107085;28;20353;-68
2022/01/13 02:02:08;;;;;;;44.45;20.48;;;6.50;99.90;;;;;;5107390;28;20738;-67
2022/01/13 02:04:36;;;;;;;53.33;21.15;;;6.40;99.90;;;;;;5104618;28;20272;-68
2022/01/13 02:07:07;;;;;;;55.03;22.25;;;6.40;99.90;;;;;;5105065;28;20311;-67
2022/01/13 02:09:36;;;;;;;51.97;19.60;;;6.40;99.90;;;;;;5101961;28;20430;-67
2022/01/13 02:12:10;;;;;;;40.47;18.67;;;6.50;99.90;;;;;;5102143;28;20241;-69
2022/01/13 02:14:49;;;;;;;43.72;20.02;;;6.50;99.90;;;;;;5101935;28;20623;-69
2022/01/13 02:17:24;;;;;;;48.55;20.65;;;6.50;99.90;;;;;;5101824;28;20224;-69
2022/01/13 02:19:53;;;;;;;49.15;19.65;;;6.50;99.90;;;;;;5101738;28;20205;-69
2022/01/13 02:22:24;;;;;;;45.17;19.58;;;6.60;99.90;;;;;;5101825;28;20203;-68
2022/01/13 02:24:52;;;;;;;41.85;17.65;;;6.60;99.90;;;;;;5101408;28;20259;-68
2022/01/13 02:27:20;;;;;;;47.17;20.73;;;6.70;99.90;;;;;;5101282;28;20614;-68
2022/01/13 02:29:49;;;;;;;41.50;17.63;;;6.70;99.90;;;;;;5101219;28;20299;-68
2022/01/13 02:32:17;;;;;;;43.42;19.58;;;6.60;99.90;;;;;;5100312;28;20204;-68
2022/01/13 02:34:46;;;;;;;46.83;20.35;;;6.70;99.90;;;;;;5100738;28;20239;-67
2022/01/13 02:37:14;;;;;;;48.45;19.42;;;6.60;99.90;;;;;;5100000;28;20726;-68
2022/01/13 02:39:43;;;;;;;52.17;20.02;;;6.70;99.90;;;;;;5101049;28;20195;-68
2022/01/13 02:42:14;;;;;;;46.22;18.83;;;6.70;99.90;;;;;;5100839;28;20362;-70
2022/01/13 02:44:49;;;;;;;51.15;18.95;;;6.70;99.90;;;;;;5100634;27;20272;-70
2022/01/13 02:47:37;;;;;;;46.17;23.00;;;6.70;99.90;;;;;;5101061;28;20262;-69
2022/01/13 02:50:09;;;;;;;47.15;19.95;;;6.60;99.90;;;;;;5100690;28;20208;-69
2022/01/13 02:52:37;;;;;;;48.05;20.17;;;6.70;99.90;;;;;;5100544;28;20627;-69
2022/01/13 02:55:08;;;;;;;43.25;22.08;;;6.80;99.90;;;;;;5100510;28;20965;-69
2022/01/13 02:57:37;;;;;;;46.35;19.70;;;6.80;99.90;;;;;;5100708;28;20215;-69
2022/01/13 03:00:08;;;;;;;49.28;20.67;;;6.70;99.90;;;;;;5106158;28;20449;-68
2022/01/13 03:02:35;;;;;;;45.25;19.50;;;6.70;99.90;;;;;;5100257;28;20238;-67
2022/01/13 03:05:11;;;;;;;46.22;20.17;;;6.70;99.90;;;;;;5100583;28;20387;-66
2022/01/13 03:07:38;;;;;;;47.88;20.45;;;6.70;99.90;;;;;;5100593;28;20227;-68
2022/01/13 03:10:09;;;;;;;47.88;20.42;;;6.70;99.90;;;;;;5101044;28;20242;-67
2022/01/13 03:12:40;;;;;;;42.33;18.70;;;6.60;99.90;;;;;;5101201;28;20290;-69
2022/01/13 03:15:09;;;;;;;47.58;20.90;;;6.70;99.90;;;;;;5101232;28;20893;-69
2022/01/13 03:17:37;;;;;;;43.53;19.40;;;6.70;99.90;;;;;;5101305;28;20303;-68
2022/01/13 03:20:06;;;;;;;41.65;19.33;;;6.80;99.90;;;;;;5101382;28;20920;-67
2022/01/13 03:22:33;;;;;;;45.35;18.70;;;6.80;99.90;;;;;;5100897;28;20556;-68
2022/01/13 03:25:03;;;;;;;45.75;19.50;;;6.80;99.90;;;;;;5100985;28;20250;-68
2022/01/13 03:27:35;;;;;;;52.35;18.10;;;6.70;99.90;;;;;;5101544;28;20286;-67
2022/01/13 03:30:06;;;;;;;52.30;20.15;;;6.70;99.90;;;;;;5100831;28;20884;-67
2022/01/13 03:32:35;;;;;;;48.40;19.70;;;6.70;99.90;;;;;;5101144;28;20806;-68
2022/01/13 03:35:03;;;;;;;44.50;18.40;;;6.70;99.90;;;;;;5100146;28;20223;-66
2022/01/13 03:37:31;;;;;;;47.65;18.30;;;6.70;99.90;;;;;;5100411;28;20423;-67
2022/01/13 03:40:00;;;;;;;42.97;20.40;;;6.80;99.90;;;;;;5100115;28;20203;-68
2022/01/13 03:42:27;;;;;;;45.60;18.58;;;6.80;99.90;;;;;;5100715;28;20496;-67
2022/01/13 03:44:58;;;;;;;41.45;17.88;;;6.80;99.90;;;;;;5100294;28;20315;-68
2022/01/13 03:47:26;;;;;;;47.53;17.52;;;6.80;99.90;;;;;;5102822;28;20216;-65
2022/01/13 03:49:54;;;;;;;52.72;20.25;;;6.80;99.90;;;;;;5100658;27;20814;-66
2022/01/13 03:52:53;;;;;;;42.70;18.55;;;6.80;99.90;;;;;;5109815;28;20196;-66
2022/01/13 03:56:12;;;;;;;42.75;17.25;;;6.80;99.90;;;;;;5102242;28;20457;-69
2022/01/13 03:59:18;;;;;;;39.35;19.55;;;6.80;99.90;;;;;;5100093;28;20231;-67
2022/01/13 04:02:05;;;;;;;45.47;18.98;;;6.80;99.90;;;;;;5114614;28;20384;-67
2022/01/13 04:04:34;;;;;;;45.58;18.70;;;6.80;99.90;;;;;;5114318;28;20237;-69
2022/01/13 04:07:11;;;;;;;40.75;18.30;;;6.80;99.90;;;;;;5100234;28;20687;-66
2022/01/13 04:10:27;;;;;;;44.88;18.50;;;6.80;99.90;;;;;;5099414;28;20682;-68
2022/01/13 04:12:56;;;;;;;44.92;21.17;;;6.80;99.90;;;;;;5099299;28;20245;-66
2022/01/13 04:15:28;;;;;;;40.78;17.40;;;6.80;99.90;;;;;;5099533;28;20702;-67
2022/01/13 04:17:58;;;;;;;42.63;20.50;;;6.80;99.90;;;;;;5099406;28;20230;-68
2022/01/13 04:20:26;;;;;;;39.92;18.25;;;6.80;99.90;;;;;;5099102;28;20644;-66
2022/01/13 04:22:54;;;;;;;45.72;18.35;;;6.90;99.90;;;;;;5098988;28;20268;-65
2022/01/13 04:25:23;;;;;;;43.45;18.83;;;6.90;99.90;;;;;;5098818;28;20442;-65
2022/01/13 04:28:00;;;;;;;37.60;18.90;;;6.90;99.90;;;;;;5099169;28;20547;-66
2022/01/13 04:33:24;;;;;;;46.92;19.73;;;6.90;99.90;;;;;;5098620;28;20199;-68
2022/01/13 04:35:52;;;;;;;36.95;18.85;;;6.90;99.90;;;;;;5098716;28;20468;-69
2022/01/13 04:38:20;;;;;;;45.95;21.00;;;6.90;99.90;;;;;;5098585;27;20514;-69
2022/01/13 04:40:54;;;;;;;44.85;19.83;;;6.90;99.90;;;;;;5099469;28;20279;-68
2022/01/13 04:43:23;;;;;;;44.97;20.52;;;6.90;99.90;;;;;;5098790;28;20274;-69
2022/01/13 04:45:51;;;;;;;36.90;18.80;;;6.90;99.90;;;;;;5100474;28;20302;-69
2022/01/13 04:48:19;;;;;;;45.55;19.00;;;6.80;99.90;;;;;;5103188;28;20665;-70
2022/01/13 04:50:49;;;;;;;40.80;19.75;;;6.80;99.90;;;;;;5098617;28;20206;-68
2022/01/13 04:53:17;;;;;;;35.10;18.65;;;6.80;99.90;;;;;;5099059;28;20341;-69
2022/01/13 04:55:50;;;;;;;37.30;19.38;;;6.80;99.90;;;;;;5098404;28;20213;-70
2022/01/13 04:58:18;;;;;;;45.45;19.35;;;6.90;99.90;;;;;;5098571;28;20286;-70
2022/01/13 05:00:46;;;;;;;38.15;18.75;;;6.90;99.90;;;;;;5098587;28;20294;-70
2022/01/13 05:03:14;;;;;;;41.15;18.63;;;6.90;99.90;;;;;;5098018;28;20195;-69
2022/01/13 05:05:42;;;;;;;41.42;19.77;;;6.90;99.90;;;;;;5098217;28;20773;-70
2022/01/13 05:08:11;;;;;;;38.17;19.13;;;6.90;99.90;;;;;;5098153;28;20547;-70
2022/01/13 05:10:39;;;;;;;45.00;18.50;;;6.90;99.90;;;;;;5097999;28;20235;-70
2022/01/13 05:13:09;;;;;;;46.50;18.50;;;6.90;99.90;;;;;;5101172;28;20210;-69
2022/01/13 05:15:39;;;;;;;40.65;18.70;;;6.90;99.90;;;;;;5102482;28;20266;-69
2022/01/13 05:18:18;;;;;;;38.75;18.45;;;6.80;99.90;;;;;;5103233;28;20260;-69
2022/01/13 05:20:49;;;;;;;41.70;18.63;;;6.80;99.90;;;;;;5102049;28;20667;-70
2022/01/13 05:23:19;;;;;;;46.00;18.77;;;6.80;99.90;;;;;;5102116;28;20294;-70
2022/01/13 05:25:47;;;;;;;36.90;18.35;;;6.80;99.90;;;;;;5102043;28;20246;-69
2022/01/13 05:28:15;;;;;;;46.90;19.30;;;6.80;99.90;;;;;;5102775;28;20301;-69
2022/01/13 05:30:43;;;;;;;42.60;18.85;;;6.80;99.90;;;;;;5102442;28;20321;-69
2022/01/13 05:33:11;;;;;;;41.72;20.42;;;6.80;99.90;;;;;;5102737;28;20272;-68
2022/01/13 05:35:39;;;;;;;38.45;18.88;;;6.90;99.90;;;;;;5102783;28;20438;-69
2022/01/13 05:38:09;;;;;;;42.00;20.55;;;6.90;99.90;;;;;;5102241;28;20275;-69
2022/01/13 05:40:38;;;;;;;45.50;19.58;;;6.90;99.90;;;;;;5102316;28;20199;-70
2022/01/13 05:43:07;;;;;;;43.33;20.52;;;7.00;99.90;;;;;;5102331;27;20253;-70
2022/01/13 05:45:38;;;;;;;38.83;20.25;;;6.90;99.90;;;;;;5103013;28;20200;-69
2022/01/13 05:48:07;;;;;;;38.08;20.88;;;6.90;99.90;;;;;;5102517;27;20234;-68
2022/01/13 05:50:35;;;;;;;43.85;19.08;;;6.90;99.90;;;;;;5103284;28;20196;-69
2022/01/13 05:53:04;;;;;;;48.03;22.17;;;7.00;99.90;;;;;;5105845;27;20298;-67
2022/01/13 05:55:33;;;;;;;53.75;21.65;;;7.00;99.90;;;;;;5105526;28;20290;-67
2022/01/13 05:58:03;;;;;;;45.15;21.25;;;7.10;99.90;;;;;;5105657;28;20226;-67
2022/01/13 06:00:31;;;;;;;38.05;18.55;;;7.10;99.90;;;;;;5106294;28;20228;-68
2022/01/13 06:02:59;;;;;;;42.30;20.27;;;7.10;99.90;;;;;;5103821;28;20311;-67
2022/01/13 06:05:27;;;;;;;39.72;18.25;;;7.10;99.90;;;;;;5104166;28;20199;-67
2022/01/13 06:07:55;;;;;;;44.90;19.38;;;7.10;99.90;;;;;;5103753;28;20228;-73
2022/01/13 06:10:24;;;;;;;44.88;20.80;;;7.10;99.90;;;;;;5103580;28;20291;-69
2022/01/13 06:12:53;;;;;;;42.03;21.75;;;7.10;99.90;;;;;;5102494;28;20199;-69
2022/01/13 06:15:24;;;;;;;40.03;20.35;;;7.20;99.90;;;;;;5102433;28;20821;-68
2022/01/13 06:17:55;;;;;;;42.78;21.75;;;7.20;99.90;;;;;;5101901;28;20291;-69
2022/01/13 06:20:23;;;;;;;45.15;20.00;;;7.20;99.90;;;;;;5102203;28;20196;-69
2022/01/13 06:22:52;;;;;;;38.15;20.27;;;7.20;99.90;;;;;;5102015;28;20195;-69
2022/01/13 06:25:21;;;;;;;41.30;19.80;;;7.20;99.90;;;;;;5101760;28;20302;-68
2022/01/13 06:27:49;;;;;;;34.10;19.33;;;7.10;99.90;;;;;;5100228;28;20234;-68
2022/01/13 06:30:38;;;;;;;41.42;19.75;;;7.20;99.90;;;;;;5111643;28;20195;-68
2022/01/13 06:33:06;;;;;;;38.08;18.38;;;7.20;99.90;;;;;;5123081;28;20206;-68
2022/01/13 06:35:34;;;;;;;46.30;19.95;;;7.20;99.90;;;;;;5107986;28;20461;-68
2022/01/13 06:38:02;;;;;;;46.00;20.52;;;7.20;99.90;;;;;;5103105;28;20749;-68
2022/01/13 06:40:30;;;;;;;49.72;20.75;;;7.30;99.90;;;;;;5101624;28;20205;-67
2022/01/13 06:42:58;;;;;;;38.25;18.30;;;7.30;99.90;;;;;;5101391;28;20199;-67
2022/01/13 06:45:26;;;;;;;38.80;18.00;;;7.30;99.90;;;;;;5100954;28;20554;-67
2022/01/13 06:47:55;;;;;;;41.20;20.65;;;7.20;99.90;;;;;;5099960;28;20304;-68
2022/01/13 06:50:23;;;;;;;43.22;19.20;;;7.30;99.90;;;;;;5094508;28;20299;-66
2022/01/13 06:52:51;;;;;;;40.28;18.92;;;7.30;99.90;;;;;;5088643;28;20274;-67
2022/01/13 06:55:19;;;;;;;39.40;19.98;;;7.30;99.90;;;;;;5089441;28;20204;-66
2022/01/13 06:57:47;;;;;;;50.28;20.35;;;7.30;99.90;;;;;;5088953;28;20274;-66
2022/01/13 07:00:16;;;;;;;39.13;17.88;;;7.30;99.90;;;;;;5089368;28;20421;-66
2022/01/13 07:02:44;;;;;;;45.88;19.35;;;7.30;99.90;;;;;;5096194;27;20223;-68
2022/01/13 07:05:13;;;;;;;39.20;17.20;;;7.30;99.90;;;;;;5099522;28;20203;-67
2022/01/13 07:07:42;;;;;;;42.08;20.73;;;7.40;99.90;;;;;;5099960;28;20315;-68
2022/01/13 07:10:11;;;;;;;42.03;18.13;;;7.40;99.90;;;;;;5099431;28;20234;-67
2022/01/13 07:12:39;;;;;;;43.97;20.50;;;7.30;99.90;;;;;;5100861;28;20227;-67
2022/01/13 07:15:09;;;;;;;42.20;19.83;;;7.30;99.90;;;;;;5099820;28;20303;-67
2022/01/13 07:17:37;;;;;;;41.70;19.00;;;7.30;99.90;;;;;;5100279;28;20247;-68
2022/01/13 07:20:08;;;;;;;40.45;18.35;;;7.30;99.90;;;;;;5100347;28;20203;-68
2022/01/13 07:22:39;;;;;;;35.28;17.05;;;7.30;99.90;;;;;;5099396;28;20212;-67
2022/01/13 07:25:08;;;;;;;39.65;17.80;;;7.20;99.90;;;;;;5100751;28;20230;-68
2022/01/13 07:27:39;;;;;;;40.78;17.63;;;7.20;99.90;;;;;;5100186;28;20543;-68
2022/01/13 07:30:08;;;;;;;38.83;18.48;;;7.30;99.90;;;;;;5098786;28;20223;-70
2022/01/13 07:32:37;;;;;;;39.88;17.85;;;7.30;99.90;;;;;;5093231;28;20191;-70
2022/01/13 07:35:06;;;;;;;39.13;19.52;;;7.30;99.90;;;;;;5091138;28;20652;-70
2022/01/13 07:37:34;;;;;;;39.88;17.77;;;7.40;99.90;;;;;;5092600;28;20690;-70
2022/01/13 07:40:05;;;;;;;41.20;19.15;;;7.40;99.90;;;;;;5093595;28;20195;-69
2022/01/13 07:42:35;;;;;;;39.95;18.35;;;7.40;99.90;;;;;;5099362;28;20208;-68
2022/01/13 07:45:03;;;;;;;35.50;16.55;;;7.40;99.90;;;;;;5100406;28;20200;-68
2022/01/13 07:47:31;;;;;;;37.45;18.00;;;7.50;99.90;;;;;;5090837;27;20208;-67
2022/01/13 07:49:59;;;;;;;34.85;17.20;;;7.40;99.90;;;;;;5079287;28;20200;-66
2022/01/13 07:52:27;;;;;;;40.13;18.30;;;7.40;99.90;;;;;;5084830;28;20277;-70
2022/01/13 07:54:55;;;;;;;37.42;16.98;;;7.40;99.90;;;;;;5087809;27;20215;-69
2022/01/13 07:57:24;;;;;;;35.20;18.73;;;7.40;99.90;;;;;;5098940;28;20552;-69
2022/01/13 07:59:53;;;;;;;38.90;17.15;;;7.30;99.90;;;;;;5090212;28;20636;-69
2022/01/13 08:02:27;;;;;;;40.05;19.10;;;7.30;99.90;;;;;;5091511;28;20225;-68
2022/01/13 08:04:55;;;;;;;43.38;20.05;;;7.40;99.90;;;;;;5091989;28;20657;-69
2022/01/13 08:07:23;;;;;;;42.05;18.23;;;7.40;99.90;;;;;;5098079;28;20378;-69
2022/01/13 08:09:51;;;;;;;43.40;18.95;;;7.30;99.90;;;;;;5088805;28;20291;-69
2022/01/13 08:12:19;;;;;;;41.03;18.00;;;7.30;99.90;;;;;;5099280;28;20427;-69
2022/01/13 08:14:49;;;;;;;40.00;18.42;;;7.30;99.90;;;;;;5099830;28;20507;-69
2022/01/13 08:19:45;;;;;;;36.13;18.00;;;7.30;99.90;;;;;;5098857;28;20667;-69
2022/01/13 08:20:08;;;;;;;44.30;19.10;;;7.30;99.90;;;;;;5098778;28;20290;-69
2022/01/13 08:22:36;;;;;;;35.13;18.13;;;7.30;99.90;;;;;;5099372;28;20830;-69
2022/01/13 08:25:09;;;;;;;38.50;18.80;;;7.30;99.90;;;;;;5098182;28;20239;-68
2022/01/13 08:27:37;;;;;;;36.85;17.83;;;7.30;99.90;;;;;;5092473;28;20773;-68
2022/01/13 08:30:08;;;;;;;34.92;17.95;;;7.20;99.90;;;;;;5091612;28;20242;-70
2022/01/13 08:32:36;;;;;;;35.63;16.38;;;7.20;99.90;;;;;;5086938;28;20262;-68
2022/01/13 08:35:05;;;;;;;39.05;17.08;;;7.20;99.90;;;;;;5088928;28;20192;-69
2022/01/13 08:37:33;;;;;;;31.85;18.63;;;7.20;99.90;;;;;;5095702;28;20222;-69
2022/01/13 08:40:01;;;;;;;32.08;18.23;;;7.20;99.90;;;;;;5100776;28;20222;-69
2022/01/13 08:42:30;;;;;;;35.63;18.30;;;7.20;99.90;;;;;;5100971;28;20207;-68
2022/01/13 08:44:58;;;;;;;41.55;19.50;;;7.20;99.90;;;;;;5100185;28;20214;-70
2022/01/13 08:47:27;;;;;;;31.35;16.73;;;7.20;99.90;;;;;;5099454;28;20306;-70
2022/01/13 08:49:55;;;;;;;35.33;17.77;;;7.30;99.90;;;;;;5099713;28;20252;-69
2022/01/13 08:52:24;;;;;;;34.40;18.20;;;7.20;99.90;;;;;;5099779;28;20693;-69
2022/01/13 08:54:55;;;;;;;27.75;15.95;;;7.30;99.90;;;;;;5088171;28;20216;-68
2022/01/13 08:57:24;;;;;;;38.75;18.90;;;7.30;99.90;;;;;;5079813;28;20224;-69
2022/01/13 08:59:52;;;;;;;37.50;17.45;;;7.40;99.90;;;;;;5081105;28;20200;-68
2022/01/13 09:02:20;;;;;;;27.98;16.90;;;7.30;99.90;;;;;;5103159;28;20204;-69
2022/01/13 09:04:50;;;;;;;32.67;17.40;;;7.20;99.90;;;;;;5088394;28;20441;-68
2022/01/13 09:07:18;;;;;;;30.92;17.77;;;7.20;99.90;;;;;;5079437;27;20231;-69
2022/01/13 09:10:04;;;;;;;37.95;17.50;;;7.20;99.90;;;;;;5085812;28;20196;-69
2022/01/13 09:12:35;;;;;;;34.13;15.63;;;7.20;99.90;;;;;;5102200;28;20203;-69
2022/01/13 09:15:15;;;;;;;30.15;16.15;;;7.10;99.90;;;;;;5100340;28;20670;-69
2022/01/13 09:17:44;;;;;;;33.78;17.20;;;7.20;99.90;;;;;;5100726;28;20219;-69
2022/01/13 09:20:15;;;;;;;30.88;17.67;;;7.20;99.90;;;;;;5102187;28;20187;-69
2022/01/13 09:22:43;;;;;;;37.17;18.92;;;7.20;99.90;;;;;;5099208;28;20280;-69
2022/01/13 09:25:12;;;;;;;35.33;17.75;;;7.20;99.90;;;;;;5098734;27;20223;-69
2022/01/13 09:27:41;;;;;;;33.22;17.00;;;7.20;99.90;;;;;;5098609;28;20219;-69
2022/01/13 09:30:10;;;;;;;36.20;17.45;;;7.20;99.90;;;;;;5097183;28;20229;-69
2022/01/13 09:32:39;;;;;;;34.22;15.85;;;7.20;99.90;;;;;;5099373;28;20218;-70
2022/01/13 09:35:08;;;;;;;30.45;16.08;;;7.10;99.90;;;;;;5098647;28;20188;-69
2022/01/13 09:37:38;;;;;;;34.67;16.58;;;7.10;99.90;;;;;;5098828;28;20510;-70
2022/01/13 09:40:09;;;;;;;33.88;16.48;;;7.00;99.90;;;;;;5099236;28;20220;-70
2022/01/13 09:42:41;;;;;;;34.28;16.17;;;7.10;99.90;;;;;;5098453;28;20822;-70
2022/01/13 09:45:10;;;;;;;34.97;17.15;;;7.00;99.90;;;;;;5099324;28;20199;-70
2022/01/13 09:47:39;;;;;;;34.28;17.00;;;7.10;99.90;;;;;;5098410;28;20249;-69
2022/01/13 09:50:10;;;;;;;30.17;16.30;;;7.00;99.90;;;;;;5098913;28;20224;-69
2022/01/13 09:52:40;;;;;;;36.65;17.15;;;7.00;99.90;;;;;;5099659;28;20223;-69
2022/01/13 09:55:10;;;;;;;29.10;16.52;;;7.10;99.90;;;;;;5099157;28;20211;-69
2022/01/13 09:57:42;;;;;;;30.85;17.17;;;7.10;99.90;;;;;;5099431;28;20282;-70
2022/01/13 10:00:12;;;;;;;38.08;16.08;;;7.10;99.90;;;;;;5102248;28;20239;-69
2022/01/13 10:02:40;;;;;;;26.98;13.88;;;7.10;99.90;;;;;;5103193;28;20886;-70
2022/01/13 10:05:08;;;;;;;28.67;15.68;;;7.10;99.90;;;;;;5102571;28;20214;-70
2022/01/13 10:07:41;;;;;;;32.03;15.52;;;7.10;99.90;;;;;;5103947;28;20219;-70
2022/01/13 10:10:27;;;;;;;39.65;16.27;;;7.10;99.90;;;;;;5102591;28;20258;-69
2022/01/13 10:13:04;;;;;;;36.58;16.90;;;7.10;99.90;;;;;;5102828;28;20204;-68
2022/01/13 10:18:39;;;;;;;31.15;16.75;;;7.10;99.90;;;;;;5104799;28;20286;-69
2022/01/13 10:21:08;;;;;;;31.08;15.68;;;7.20;99.90;;;;;;5108057;28;20287;-70
2022/01/13 10:23:37;;;;;;;31.95;14.88;;;7.10;99.90;;;;;;5101916;28;20238;-70
2022/01/13 10:26:12;;;;;;;29.50;15.05;;;7.10;99.90;;;;;;5106929;28;20292;-69
2022/01/13 10:28:40;;;;;;;31.95;16.05;;;7.00;99.90;;;;;;5100712;27;20216;-68
2022/01/13 10:31:08;;;;;;;32.97;17.48;;;7.00;99.90;;;;;;5102843;28;20204;-68
2022/01/13 10:33:38;;;;;;;32.33;15.73;;;7.10;99.90;;;;;;5103184;28;20203;-68
2022/01/13 10:36:08;;;;;;;31.15;15.52;;;7.10;99.90;;;;;;5102035;28;20331;-68
2022/01/13 10:38:54;;;;;;;28.98;15.75;;;7.20;99.90;;;;;;5102354;28;20321;-68
2022/01/13 10:41:38;;;;;;;36.40;15.90;;;7.10;99.90;;;;;;5085138;28;20329;-68
2022/01/13 10:44:16;;;;;;;29.95;16.77;;;7.00;99.90;;;;;;5080505;28;20239;-68
2022/01/13 10:47:00;;;;;;;31.40;17.38;;;7.00;99.90;;;;;;5081182;28;20287;-69
2022/01/13 10:49:33;;;;;;;39.38;16.73;;;7.10;99.90;;;;;;5086866;28;20306;-70
2022/01/13 10:52:18;;;;;;;32.92;17.13;;;7.00;99.90;;;;;;5081794;28;20197;-69
2022/01/13 10:54:47;;;;;;;37.22;17.50;;;7.10;99.90;;;;;;5088862;28;20223;-69
2022/01/13 10:57:21;;;;;;;42.03;18.10;;;7.10;99.90;;;;;;5101126;28;20302;-68
2022/01/13 10:59:49;;;;;;;35.08;18.45;;;7.10;99.90;;;;;;5101269;28;20211;-69
2022/01/13 11:02:18;;;;;;;37.72;18.02;;;7.10;99.90;;;;;;5102252;28;20652;-68
2022/01/13 11:04:47;;;;;;;36.55;18.20;;;7.10;99.90;;;;;;5090549;28;20239;-66
2022/01/13 11:07:17;;;;;;;36.47;17.60;;;7.20;99.90;;;;;;5087157;28;20467;-66
2022/01/13 11:09:53;;;;;;;35.15;17.10;;;7.20;99.90;;;;;;5088730;28;20220;-67
2022/01/13 11:12:35;;;;;;;34.33;16.25;;;7.20;99.90;;;;;;5080880;28;20770;-67
2022/01/13 11:15:05;;;;;;;29.55;16.45;;;7.20;99.90;;;;;;5080256;28;20919;-67
2022/01/13 11:17:38;;;;;;;37.97;17.88;;;7.20;99.90;;;;;;5081003;28;20220;-69
2022/01/13 11:20:08;;;;;;;37.58;16.10;;;7.20;99.90;;;;;;5081024;28;20232;-68
2022/01/13 11:22:38;;;;;;;32.88;17.85;;;7.20;99.90;;;;;;5081019;28;20283;-69
2022/01/13 11:25:10;;;;;;;31.27;14.57;;;7.20;99.90;;;;;;5080460;28;20192;-68
2022/01/13 11:27:39;;;;;;;28.95;14.65;;;7.20;99.90;;;;;;5082195;28;20319;-69
2022/01/13 11:30:10;;;;;;;38.63;17.08;;;7.30;99.90;;;;;;5082539;28;20394;-68
2022/01/13 11:32:40;;;;;;;30.52;15.55;;;7.30;99.90;;;;;;5091289;28;20864;-69
2022/01/13 11:35:11;;;;;;;35.42;16.23;;;7.30;99.90;;;;;;5102978;28;20385;-68
2022/01/13 11:37:41;;;;;;;36.30;16.42;;;7.30;99.90;;;;;;5087565;28;20861;-68
2022/01/13 11:40:35;;;;;;;27.90;15.57;;;7.30;99.90;;;;;;5082153;28;20291;-69
2022/01/13 11:43:05;;;;;;;31.25;14.27;;;7.20;99.90;;;;;;5081219;28;20220;-68
2022/01/13 11:45:41;;;;;;;31.95;15.40;;;7.30;99.90;;;;;;5081015;28;20232;-68
2022/01/13 11:48:17;;;;;;;34.35;14.43;;;7.30;99.90;;;;;;5081389;28;20196;-69
2022/01/13 11:50:49;;;;;;;30.52;15.23;;;7.40;99.90;;;;;;5081446;28;20315;-69
2022/01/13 11:53:35;;;;;;;30.73;14.90;;;7.40;99.90;;;;;;5080193;28;20668;-68
2022/01/13 11:56:08;;;;;;;29.15;15.75;;;7.40;99.90;;;;;;5079947;28;20313;-68
2022/01/13 11:58:47;;;;;;;33.78;14.35;;;7.50;99.90;;;;;;5080186;28;20421;-68
2022/01/13 12:01:20;;;;;;;29.25;14.32;;;7.50;99.90;;;;;;5079949;28;20279;-68
2022/01/13 12:03:50;;;;;;;34.05;14.45;;;7.60;99.90;;;;;;5079883;28;20219;-68
2022/01/13 12:06:39;;;;;;;35.10;15.13;;;7.60;99.90;;;;;;5079997;28;20220;-68
2022/01/13 12:09:09;;;;;;;32.38;15.70;;;7.60;99.90;;;;;;5080341;28;20291;-68
2022/01/13 12:11:45;;;;;;;34.90;14.93;;;7.60;99.90;;;;;;5085346;28;20312;-68
2022/01/13 12:14:39;;;;;;;29.50;15.10;;;7.50;99.90;;;;;;5080458;28;20287;-67
2022/01/13 12:17:22;;;;;;;30.38;14.73;;;7.50;99.90;;;;;;5079730;28;20274;-67
2022/01/13 12:19:52;;;;;;;32.10;14.95;;;7.50;99.90;;;;;;5080271;28;20180;-67
2022/01/13 12:22:42;;;;;;;31.80;16.38;;;7.50;99.90;;;;;;5092364;28;20202;-66
2022/01/13 12:25:12;;;;;;;31.40;16.98;;;7.50;99.90;;;;;;5078986;28;20192;-67
2022/01/13 12:27:50;;;;;;;28.35;15.15;;;7.50;99.90;;;;;;5087147;28;20216;-69
2022/01/13 12:30:25;;;;;;;30.58;14.05;;;7.40;99.90;;;;;;5091165;28;20276;-67
2022/01/13 12:32:56;;;;;;;32.00;14.73;;;7.40;99.90;;;;;;5093922;28;20685;-69
2022/01/13 12:35:48;;;;;;;31.52;15.30;;;7.30;99.90;;;;;;5082111;28;20200;-67
2022/01/13 12:38:18;;;;;;;32.88;16.00;;;7.30;99.90;;;;;;5074196;28;20275;-67
2022/01/13 12:40:51;;;;;;;33.25;15.73;;;7.20;99.90;;;;;;5097613;28;20230;-67
2022/01/13 12:43:48;;;;;;;33.65;16.20;;;7.20;99.90;;;;;;5100928;28;20257;-67
2022/01/13 12:46:18;;;;;;;40.53;18.02;;;7.20;99.90;;;;;;5099750;28;20855;-69
2022/01/13 12:48:49;;;;;;;34.58;19.02;;;7.20;99.90;;;;;;5100112;27;20207;-67
2022/01/13 12:51:20;;;;;;;46.58;18.30;;;7.30;99.90;;;;;;5100507;28;20824;-66
2022/01/13 12:53:50;;;;;;;33.17;16.90;;;7.30;99.90;;;;;;5099507;27;20440;-67
2022/01/13 12:56:19;;;;;;;37.67;17.80;;;7.30;99.90;;;;;;5099914;28;20318;-67
2022/01/13 12:58:52;;;;;;;31.65;15.27;;;7.40;99.90;;;;;;5099203;28;20196;-68
2022/01/13 13:01:22;;;;;;;37.05;17.77;;;7.40;99.90;;;;;;5099877;28;20803;-67
2022/01/13 13:03:58;;;;;;;37.80;17.60;;;7.40;99.90;;;;;;5099576;28;20686;-67
2022/01/13 13:06:27;;;;;;;35.03;17.20;;;7.40;99.90;;;;;;5100237;28;20805;-68